createdAt,value
2023-06-04T00:00:26.856Z,249.59
2023-06-04T00:01:26.873Z,249.74
2023-06-04T00:02:26.980Z,249.39
2023-06-04T00:03:27.005Z,249.56
2023-06-04T00:04:26.933Z,249.71
2023-06-04T00:05:26.843Z,249.52
2023-06-04T00:06:26.862Z,250.30
2023-06-04T00:07:26.951Z,250.00
2023-06-04T00:08:26.901Z,249.54
2023-06-04T00:09:26.907Z,250.24
2023-06-04T00:10:26.908Z,250.00
2023-06-04T00:11:26.949Z,250.00
2023-06-04T00:12:26.893Z,249.64
2023-06-04T00:13:26.918Z,248.72
2023-06-04T00:14:26.907Z,248.02
2023-06-04T00:15:26.939Z,248.48
2023-06-04T00:16:26.966Z,246.34
2023-06-04T00:17:27.002Z,245.19
2023-06-04T00:18:26.972Z,243.87
2023-06-04T00:19:26.992Z,245.00
2023-06-04T00:20:27.033Z,245.23
2023-06-04T00:21:27.049Z,243.69
2023-06-04T00:22:27.122Z,244.44
2023-06-04T00:23:27.110Z,246.05
2023-06-04T00:24:27.019Z,246.47
2023-06-04T00:25:27.596Z,246.00
2023-06-04T00:26:27.069Z,248.20
2023-06-04T00:27:27.047Z,247.66
2023-06-04T00:28:27.080Z,247.92
2023-06-04T00:29:27.107Z,249.82
2023-06-04T00:30:27.089Z,248.99
2023-06-04T00:31:27.099Z,249.79
2023-06-04T00:32:27.135Z,249.29
2023-06-04T00:33:27.112Z,249.17
2023-06-04T00:34:27.098Z,248.52
2023-06-04T00:35:27.116Z,245.82
2023-06-04T00:36:27.149Z,244.85
2023-06-04T00:37:27.163Z,242.43
2023-06-04T00:38:27.167Z,240.91
2023-06-04T00:39:27.191Z,239.05
2023-06-04T00:40:27.221Z,238.94
2023-06-04T00:41:27.223Z,237.28
2023-06-04T00:42:27.199Z,238.78
2023-06-04T00:43:27.210Z,238.29
2023-06-04T00:44:27.207Z,238.72
2023-06-04T00:45:27.356Z,237.87
2023-06-04T00:46:27.285Z,237.77
2023-06-04T00:47:27.270Z,238.05
2023-06-04T00:48:27.213Z,237.61
2023-06-04T00:49:27.242Z,237.98
2023-06-04T00:50:27.204Z,239.53
2023-06-04T00:51:27.242Z,239.08
2023-06-04T00:52:27.281Z,240.05
2023-06-04T00:53:27.297Z,238.46
2023-06-04T00:54:27.269Z,239.46
2023-06-04T00:55:27.298Z,239.42
2023-06-04T00:56:27.328Z,240.42
2023-06-04T00:57:27.322Z,238.89
2023-06-04T00:58:27.332Z,239.51
2023-06-04T00:59:27.389Z,238.45
2023-06-04T01:00:27.362Z,236.87
2023-06-04T01:01:27.411Z,235.95
2023-06-04T01:02:27.396Z,235.39
2023-06-04T01:03:27.362Z,233.85
2023-06-04T01:04:27.320Z,231.88
2023-06-04T01:05:27.361Z,231.62
2023-06-04T01:06:27.322Z,230.29
2023-06-04T01:07:27.334Z,228.14
2023-06-04T01:08:27.338Z,225.73
2023-06-04T01:09:27.319Z,225.59
2023-06-04T01:10:27.321Z,223.04
2023-06-04T01:11:27.331Z,224.62
2023-06-04T01:12:27.330Z,222.14
2023-06-04T01:13:27.341Z,220.52
2023-06-04T01:14:27.302Z,220.96
2023-06-04T01:15:27.330Z,218.91
2023-06-04T01:16:27.348Z,216.15
2023-06-04T01:17:27.352Z,215.06
2023-06-04T01:18:27.305Z,214.44
2023-06-04T01:19:27.354Z,213.81
2023-06-04T01:20:27.311Z,213.01
2023-06-04T01:21:27.311Z,211.41
2023-06-04T01:22:27.339Z,208.99
2023-06-04T01:23:27.399Z,208.57
2023-06-04T01:24:27.313Z,207.23
2023-06-04T01:25:27.367Z,205.73
2023-06-04T01:26:27.333Z,204.62
2023-06-04T01:27:27.310Z,205.07
2023-06-04T01:28:27.342Z,203.22
2023-06-04T01:29:27.328Z,203.12
2023-06-04T01:30:27.338Z,201.76
2023-06-04T01:31:27.427Z,203.01
2023-06-04T01:32:27.366Z,200.82
2023-06-04T01:33:27.348Z,200.16
2023-06-04T01:34:27.353Z,200.28
2023-06-04T01:35:29.163Z,200.01
2023-06-04T01:36:27.351Z,198.89
2023-06-04T01:37:27.347Z,197.54
2023-06-04T01:38:27.394Z,196.66
2023-06-04T01:39:27.374Z,196.55
2023-06-04T01:40:27.437Z,196.87
2023-06-04T01:41:27.410Z,196.11
2023-06-04T01:42:27.436Z,195.42
2023-06-04T01:43:27.442Z,195.14
2023-06-04T01:44:27.462Z,195.98
2023-06-04T01:45:27.465Z,194.43
2023-06-04T01:46:27.542Z,195.15
2023-06-04T01:47:27.517Z,194.55
2023-06-04T01:48:27.477Z,193.85
2023-06-04T01:49:27.493Z,194.02
2023-06-04T01:50:27.529Z,195.39
2023-06-04T01:51:27.517Z,196.22
2023-06-04T01:52:27.502Z,197.52
2023-06-04T01:53:27.514Z,196.25
2023-06-04T01:54:27.486Z,199.16
2023-06-04T01:55:27.481Z,199.33
2023-06-04T01:56:27.459Z,199.56
2023-06-04T01:57:27.473Z,201.73
2023-06-04T01:58:27.475Z,203.22
2023-06-04T01:59:27.467Z,203.92
2023-06-04T02:00:27.446Z,203.70
2023-06-04T02:01:27.501Z,206.94
2023-06-04T02:02:27.472Z,210.98
2023-06-04T02:03:27.547Z,214.31
2023-06-04T02:04:27.427Z,216.93
2023-06-04T02:05:27.428Z,219.95
2023-06-04T02:06:27.457Z,219.81
2023-06-04T02:07:27.426Z,220.66
2023-06-04T02:08:27.455Z,217.05
2023-06-04T02:09:27.466Z,216.95
2023-06-04T02:10:27.434Z,216.01
2023-06-04T02:11:27.380Z,215.13
2023-06-04T02:12:27.424Z,212.35
2023-06-04T02:13:27.388Z,212.38
2023-06-04T02:14:27.413Z,210.74
2023-06-04T02:15:27.437Z,210.57
2023-06-04T02:16:27.471Z,209.54
2023-06-04T02:17:27.434Z,209.63
2023-06-04T02:18:27.427Z,208.73
2023-06-04T02:19:27.436Z,209.52
2023-06-04T02:20:27.426Z,208.59
2023-06-04T02:21:27.422Z,208.92
2023-06-04T02:22:27.435Z,207.75
2023-06-04T02:23:27.518Z,207.68
2023-06-04T02:24:27.450Z,206.65
2023-06-04T02:25:27.513Z,207.46
2023-06-04T02:26:27.468Z,207.13
2023-06-04T02:27:27.480Z,206.81
2023-06-04T02:28:27.495Z,205.88
2023-06-04T02:29:27.492Z,203.46
2023-06-04T02:30:27.506Z,202.33
2023-06-04T02:31:27.476Z,202.36
2023-06-04T02:32:27.517Z,202.26
2023-06-04T02:33:27.488Z,201.38
2023-06-04T02:34:27.496Z,199.90
2023-06-04T02:35:27.528Z,199.59
2023-06-04T02:36:27.535Z,198.90
2023-06-04T02:37:27.557Z,197.49
2023-06-04T02:38:27.569Z,196.48
2023-06-04T02:39:27.565Z,198.38
2023-06-04T02:40:27.561Z,200.38
2023-06-04T02:41:27.581Z,202.37
2023-06-04T02:42:27.578Z,201.88
2023-06-04T02:43:27.553Z,199.33
2023-06-04T02:44:27.767Z,200.09
2023-06-04T02:45:27.601Z,197.48
2023-06-04T02:46:27.615Z,198.26
2023-06-04T02:47:27.651Z,198.66
2023-06-04T02:48:27.586Z,197.72
2023-06-04T02:49:27.584Z,197.23
2023-06-04T02:50:27.592Z,196.27
2023-06-04T02:51:27.611Z,195.44
2023-06-04T02:52:27.636Z,195.91
2023-06-04T02:53:27.633Z,194.51
2023-06-04T02:54:27.635Z,194.16
2023-06-04T02:55:27.634Z,191.49
2023-06-04T02:56:27.680Z,190.46
2023-06-04T02:57:27.674Z,189.12
2023-06-04T02:58:27.653Z,188.61
2023-06-04T02:59:27.743Z,188.71
2023-06-04T03:00:27.697Z,187.86
2023-06-04T03:01:27.784Z,186.77
2023-06-04T03:02:27.761Z,185.04
2023-06-04T03:03:27.850Z,185.62
2023-06-04T03:04:27.796Z,184.76
2023-06-04T03:05:27.845Z,183.42
2023-06-04T03:06:27.814Z,182.19
2023-06-04T03:07:27.849Z,182.18
2023-06-04T03:08:27.871Z,183.11
2023-06-04T03:09:27.859Z,180.96
2023-06-04T03:10:27.941Z,180.39
2023-06-04T03:11:27.907Z,180.08
2023-06-04T03:12:27.935Z,178.59
2023-06-04T03:13:27.981Z,176.73
2023-06-04T03:14:27.994Z,175.93
2023-06-04T03:15:28.006Z,174.62
2023-06-04T03:16:28.079Z,173.41
2023-06-04T03:17:28.089Z,171.82
2023-06-04T03:18:28.031Z,170.37
2023-06-04T03:19:28.081Z,170.13
2023-06-04T03:20:28.129Z,170.69
2023-06-04T03:21:28.142Z,170.35
2023-06-04T03:22:28.154Z,170.20
2023-06-04T03:23:28.188Z,170.12
2023-06-04T03:24:28.209Z,169.06
2023-06-04T03:25:28.230Z,170.44
2023-06-04T03:26:28.258Z,170.24
2023-06-04T03:27:28.300Z,171.81
2023-06-04T03:28:28.313Z,171.59
2023-06-04T03:29:28.321Z,172.51
2023-06-04T03:30:28.329Z,173.50
2023-06-04T03:31:28.355Z,176.05
2023-06-04T03:32:28.406Z,175.52
2023-06-04T03:33:28.363Z,177.21
2023-06-04T03:34:28.412Z,176.30
2023-06-04T03:35:28.396Z,177.02
2023-06-04T03:36:28.397Z,177.47
2023-06-04T03:37:28.416Z,178.83
2023-06-04T03:38:28.414Z,179.59
2023-06-04T03:39:28.440Z,179.35
2023-06-04T03:40:28.474Z,180.49
2023-06-04T03:41:28.496Z,180.75
2023-06-04T03:42:28.485Z,179.62
2023-06-04T03:43:28.523Z,181.43
2023-06-04T03:44:28.593Z,182.32
2023-06-04T03:45:28.536Z,181.90
2023-06-04T03:46:28.563Z,182.50
2023-06-04T03:47:28.646Z,183.23
2023-06-04T03:48:28.572Z,183.26
2023-06-04T03:49:28.576Z,183.47
2023-06-04T03:50:28.576Z,183.45
2023-06-04T03:51:28.598Z,184.90
2023-06-04T03:52:28.584Z,185.10
2023-06-04T03:53:28.597Z,185.50
2023-06-04T03:54:28.608Z,185.26
2023-06-04T03:55:28.591Z,185.94
2023-06-04T03:56:28.569Z,186.55
2023-06-04T03:57:28.603Z,187.04
2023-06-04T03:58:28.564Z,186.85
2023-06-04T03:59:28.581Z,187.87
2023-06-04T04:00:28.591Z,190.08
2023-06-04T04:01:28.611Z,189.43
2023-06-04T04:02:28.646Z,192.13
2023-06-04T04:03:28.671Z,191.13
2023-06-04T04:04:28.627Z,191.67
2023-06-04T04:05:28.582Z,190.85
2023-06-04T04:06:28.576Z,190.29
2023-06-04T04:07:28.612Z,188.31
2023-06-04T04:08:28.572Z,188.02
2023-06-04T04:09:28.595Z,189.08
2023-06-04T04:10:28.598Z,189.07
2023-06-04T04:11:28.546Z,190.95
2023-06-04T04:12:28.636Z,190.07
2023-06-04T04:13:28.603Z,191.12
2023-06-04T04:14:28.571Z,191.85
2023-06-04T04:15:28.557Z,191.92
2023-06-04T04:16:28.596Z,192.87
2023-06-04T04:17:28.616Z,192.57
2023-06-04T04:18:28.608Z,193.23
2023-06-04T04:19:28.575Z,193.03
2023-06-04T04:20:28.617Z,195.08
2023-06-04T04:21:28.569Z,194.78
2023-06-04T04:22:28.602Z,195.31
2023-06-04T04:23:28.621Z,197.22
2023-06-04T04:24:28.600Z,197.08
2023-06-04T04:25:28.578Z,195.77
2023-06-04T04:26:28.581Z,197.33
2023-06-04T04:27:28.555Z,196.05
2023-06-04T04:28:28.557Z,196.64
2023-06-04T04:29:28.531Z,197.37
2023-06-04T04:30:28.532Z,195.69
2023-06-04T04:31:28.527Z,197.25
2023-06-04T04:32:28.579Z,195.97
2023-06-04T04:33:28.518Z,196.34
2023-06-04T04:34:28.525Z,194.87
2023-06-04T04:35:28.526Z,196.24
2023-06-04T04:36:28.510Z,194.13
2023-06-04T04:37:28.538Z,193.73
2023-06-04T04:38:28.521Z,191.77
2023-06-04T04:39:28.505Z,192.92
2023-06-04T04:40:28.486Z,192.47
2023-06-04T04:41:28.507Z,192.49
2023-06-04T04:42:28.491Z,192.94
2023-06-04T04:43:28.465Z,192.15
2023-06-04T04:44:28.453Z,192.09
2023-06-04T04:45:28.484Z,190.57
2023-06-04T04:46:28.519Z,191.44
2023-06-04T04:47:28.488Z,191.90
2023-06-04T04:48:28.476Z,190.93
2023-06-04T04:49:28.490Z,191.18
2023-06-04T04:50:28.492Z,191.09
2023-06-04T04:51:28.461Z,190.65
2023-06-04T04:52:28.499Z,189.28
2023-06-04T04:53:28.482Z,189.74
2023-06-04T04:54:28.496Z,187.54
2023-06-04T04:55:28.492Z,185.57
2023-06-04T04:56:28.484Z,186.06
2023-06-04T04:57:28.511Z,186.04
2023-06-04T04:58:28.510Z,186.79
2023-06-04T04:59:28.526Z,186.51
2023-06-04T05:00:28.512Z,185.44
2023-06-04T05:01:28.529Z,182.45
2023-06-04T05:02:28.533Z,181.82
2023-06-04T05:03:28.504Z,182.31
2023-06-04T05:04:28.555Z,183.05
2023-06-04T05:05:28.498Z,184.53
2023-06-04T05:06:28.496Z,182.88
2023-06-04T05:07:28.513Z,182.73
2023-06-04T05:08:28.537Z,183.30
2023-06-04T05:09:28.513Z,180.35
2023-06-04T05:10:28.498Z,180.41
2023-06-04T05:11:28.502Z,180.15
2023-06-04T05:12:28.510Z,178.89
2023-06-04T05:13:28.499Z,178.64
2023-06-04T05:14:28.505Z,177.76
2023-06-04T05:15:28.546Z,177.16
2023-06-04T05:16:28.545Z,176.07
2023-06-04T05:17:28.581Z,175.57
2023-06-04T05:18:28.552Z,177.36
2023-06-04T05:19:28.527Z,176.17
2023-06-04T05:20:28.571Z,177.03
2023-06-04T05:21:28.521Z,176.50
2023-06-04T05:22:28.548Z,178.71
2023-06-04T05:23:28.575Z,178.38
2023-06-04T05:24:28.542Z,177.51
2023-06-04T05:25:28.535Z,175.37
2023-06-04T05:26:28.542Z,174.78
2023-06-04T05:27:28.540Z,173.75
2023-06-04T05:28:28.523Z,171.82
2023-06-04T05:29:28.512Z,172.62
2023-06-04T05:30:28.511Z,171.92
2023-06-04T05:31:28.593Z,171.97
2023-06-04T05:32:28.643Z,170.81
2023-06-04T05:33:28.593Z,168.70
2023-06-04T05:34:28.587Z,166.72
2023-06-04T05:35:28.588Z,165.95
2023-06-04T05:36:28.594Z,164.24
2023-06-04T05:37:28.636Z,160.70
2023-06-04T05:38:28.604Z,159.61
2023-06-04T05:39:28.629Z,160.60
2023-06-04T05:40:28.660Z,160.45
2023-06-04T05:41:28.808Z,159.23
2023-06-04T05:42:28.678Z,156.90
2023-06-04T05:43:28.657Z,155.47
2023-06-04T05:44:28.711Z,155.80
2023-06-04T05:45:28.673Z,154.21
2023-06-04T05:46:28.902Z,154.55
2023-06-04T05:47:28.769Z,155.81
2023-06-04T05:48:28.760Z,156.57
2023-06-04T05:49:28.752Z,157.65
2023-06-04T05:50:28.748Z,156.40
2023-06-04T05:51:28.792Z,157.47
2023-06-04T05:52:28.799Z,157.90
2023-06-04T05:53:28.775Z,158.73
2023-06-04T05:54:28.764Z,157.13
2023-06-04T05:55:28.789Z,159.54
2023-06-04T05:56:28.801Z,158.62
2023-06-04T05:57:28.834Z,158.45
2023-06-04T05:58:28.829Z,158.63
2023-06-04T05:59:28.862Z,157.59
2023-06-04T06:00:28.862Z,156.13
2023-06-04T06:01:28.870Z,157.29
2023-06-04T06:02:28.992Z,155.95
2023-06-04T06:03:28.979Z,157.29
2023-06-04T06:04:28.925Z,157.46
2023-06-04T06:05:28.905Z,156.13
2023-06-04T06:06:28.928Z,157.85
2023-06-04T06:07:29.007Z,158.38
2023-06-04T06:08:28.930Z,158.52
2023-06-04T06:09:28.979Z,157.50
2023-06-04T06:10:28.965Z,157.05
2023-06-04T06:11:28.965Z,158.30
2023-06-04T06:12:28.955Z,157.42
2023-06-04T06:13:28.982Z,157.99
2023-06-04T06:14:28.987Z,157.97
2023-06-04T06:15:29.003Z,160.70
2023-06-04T06:16:29.037Z,159.48
2023-06-04T06:17:29.065Z,160.61
2023-06-04T06:18:29.076Z,159.36
2023-06-04T06:19:29.046Z,158.54
2023-06-04T06:20:29.093Z,158.05
2023-06-04T06:21:29.083Z,156.22
2023-06-04T06:22:29.123Z,154.97
2023-06-04T06:23:29.128Z,154.18
2023-06-04T06:24:29.125Z,154.13
2023-06-04T06:25:29.151Z,153.04
2023-06-04T06:26:29.170Z,151.87
2023-06-04T06:27:29.186Z,153.42
2023-06-04T06:28:29.177Z,151.99
2023-06-04T06:29:29.208Z,153.17
2023-06-04T06:30:29.243Z,154.87
2023-06-04T06:31:29.241Z,156.96
2023-06-04T06:32:29.271Z,155.38
2023-06-04T06:33:29.200Z,155.42
2023-06-04T06:34:29.232Z,158.05
2023-06-04T06:35:29.250Z,158.78
2023-06-04T06:36:29.260Z,157.80
2023-06-04T06:37:29.222Z,158.95
2023-06-04T06:38:29.218Z,156.90
2023-06-04T06:39:29.226Z,157.51
2023-06-04T06:40:29.218Z,156.38
2023-06-04T06:41:29.238Z,155.04
2023-06-04T06:42:29.220Z,156.44
2023-06-04T06:43:29.251Z,155.97
2023-06-04T06:44:29.261Z,154.70
2023-06-04T06:45:29.220Z,153.45
2023-06-04T06:46:29.243Z,150.53
2023-06-04T06:47:29.281Z,147.98
2023-06-04T06:48:29.223Z,147.39
2023-06-04T06:49:29.194Z,148.00
2023-06-04T06:50:29.193Z,148.17
2023-06-04T06:51:29.290Z,147.99
2023-06-04T06:52:29.180Z,147.55
2023-06-04T06:53:29.177Z,149.64
2023-06-04T06:54:29.162Z,148.76
2023-06-04T06:55:29.171Z,149.85
2023-06-04T06:56:29.193Z,148.50
2023-06-04T06:57:29.206Z,147.83
2023-06-04T06:58:29.188Z,145.56
2023-06-04T06:59:29.187Z,143.05
2023-06-04T07:00:29.320Z,140.58
2023-06-04T07:01:29.395Z,141.47
2023-06-04T07:02:29.279Z,143.85
2023-06-04T07:03:29.232Z,141.59
2023-06-04T07:04:29.204Z,145.36
2023-06-04T07:05:29.208Z,145.03
2023-06-04T07:06:29.191Z,143.06
2023-06-04T07:07:29.186Z,143.63
2023-06-04T07:08:29.177Z,144.71
2023-06-04T07:09:29.199Z,143.70
2023-06-04T07:10:29.169Z,144.74
2023-06-04T07:11:29.169Z,145.46
2023-06-04T07:12:29.181Z,145.77
2023-06-04T07:13:29.194Z,149.79
2023-06-04T07:14:29.201Z,151.10
2023-06-04T07:15:29.177Z,153.17
2023-06-04T07:16:29.196Z,160.20
2023-06-04T07:17:29.184Z,162.23
2023-06-04T07:18:29.222Z,160.24
2023-06-04T07:19:29.210Z,163.94
2023-06-04T07:20:29.238Z,164.64
2023-06-04T07:21:29.232Z,164.06
2023-06-04T07:22:29.245Z,168.65
2023-06-04T07:23:29.301Z,173.79
2023-06-04T07:24:29.262Z,171.60
2023-06-04T07:25:29.277Z,172.19
2023-06-04T07:26:29.308Z,170.03
2023-06-04T07:27:29.326Z,166.98
2023-06-04T07:28:29.269Z,166.79
2023-06-04T07:29:29.322Z,169.37
2023-06-04T07:30:29.319Z,173.20
2023-06-04T07:31:29.385Z,172.98
2023-06-04T07:32:29.371Z,177.04
2023-06-04T07:33:29.443Z,176.75
2023-06-04T07:34:29.387Z,178.97
2023-06-04T07:35:29.364Z,181.69
2023-06-04T07:36:29.374Z,182.55
2023-06-04T07:37:29.423Z,182.87
2023-06-04T07:38:29.424Z,183.20
2023-06-04T07:39:29.430Z,184.24
2023-06-04T07:40:29.448Z,184.00
2023-06-04T07:41:29.446Z,185.35
2023-06-04T07:42:29.444Z,184.36
2023-06-04T07:43:29.471Z,184.41
2023-06-04T07:44:29.566Z,187.36
2023-06-04T07:45:30.025Z,193.70
2023-06-04T07:46:29.516Z,195.70
2023-06-04T07:47:29.605Z,196.78
2023-06-04T07:48:29.546Z,198.67
2023-06-04T07:49:29.561Z,201.54
2023-06-04T07:50:29.545Z,202.65
2023-06-04T07:51:29.587Z,202.73
2023-06-04T07:52:29.592Z,204.81
2023-06-04T07:53:29.576Z,207.54
2023-06-04T07:54:29.586Z,209.47
2023-06-04T07:55:29.640Z,205.22
2023-06-04T07:56:29.621Z,202.31
2023-06-04T07:57:29.608Z,200.31
2023-06-04T07:58:29.665Z,197.57
2023-06-04T07:59:29.639Z,199.88
2023-06-04T08:00:29.675Z,198.24
2023-06-04T08:01:29.678Z,200.81
2023-06-04T08:02:29.768Z,202.18
2023-06-04T08:03:29.744Z,204.82
2023-06-04T08:04:29.704Z,201.05
2023-06-04T08:05:29.700Z,201.42
2023-06-04T08:06:29.716Z,195.12
2023-06-04T08:07:29.710Z,189.44
2023-06-04T08:08:29.732Z,183.48
2023-06-04T08:09:29.712Z,174.78
2023-06-04T08:10:29.715Z,173.19
2023-06-04T08:11:29.734Z,168.42
2023-06-04T08:12:29.769Z,167.60
2023-06-04T08:13:29.774Z,170.81
2023-06-04T08:14:29.780Z,172.01
2023-06-04T08:15:29.816Z,173.31
2023-06-04T08:16:29.869Z,174.93
2023-06-04T08:17:29.865Z,181.17
2023-06-04T08:18:29.815Z,182.01
2023-06-04T08:19:29.849Z,183.89
2023-06-04T08:20:29.885Z,186.00
2023-06-04T08:21:29.842Z,188.96
2023-06-04T08:22:29.855Z,183.49
2023-06-04T08:23:29.887Z,170.45
2023-06-04T08:24:29.903Z,164.96
2023-06-04T08:25:29.911Z,162.26
2023-06-04T08:26:29.896Z,156.75
2023-06-04T08:27:29.914Z,160.32
2023-06-04T08:28:29.910Z,162.50
2023-06-04T08:29:29.917Z,162.21
2023-06-04T08:30:29.939Z,163.55
2023-06-04T08:31:30.038Z,170.25
2023-06-04T08:32:30.080Z,173.55
2023-06-04T08:33:29.961Z,171.25
2023-06-04T08:34:30.027Z,172.26
2023-06-04T08:35:30.001Z,185.15
2023-06-04T08:36:30.038Z,182.85
2023-06-04T08:37:30.020Z,169.32
2023-06-04T08:38:30.034Z,151.24
2023-06-04T08:39:30.039Z,143.87
2023-06-04T08:40:30.089Z,137.02
2023-06-04T08:41:30.048Z,121.83
2023-06-04T08:42:30.088Z,117.00
2023-06-04T08:43:30.088Z,116.07
2023-06-04T08:44:30.114Z,112.37
2023-06-04T08:45:30.200Z,107.16
2023-06-04T08:46:30.152Z,99.82
2023-06-04T08:47:30.215Z,94.66
2023-06-04T08:48:30.131Z,90.69
2023-06-04T08:49:30.110Z,92.73
2023-06-04T08:50:30.177Z,95.25
2023-06-04T08:51:30.172Z,99.27
2023-06-04T08:52:30.235Z,97.84
2023-06-04T08:53:30.237Z,101.94
2023-06-04T08:54:30.231Z,108.80
2023-06-04T08:55:30.261Z,112.74
2023-06-04T08:56:30.271Z,111.19
2023-06-04T08:57:30.267Z,111.98
2023-06-04T08:58:30.274Z,112.70
2023-06-04T08:59:30.298Z,115.12
2023-06-04T09:00:30.242Z,116.78
2023-06-04T09:01:30.329Z,116.09
2023-06-04T09:02:30.306Z,116.96
2023-06-04T09:03:30.302Z,116.15
2023-06-04T09:04:30.291Z,126.93
2023-06-04T09:05:30.302Z,138.26
2023-06-04T09:06:30.301Z,150.81
2023-06-04T09:07:30.305Z,150.93
2023-06-04T09:08:30.299Z,141.48
2023-06-04T09:09:30.332Z,138.95
2023-06-04T09:10:30.293Z,134.91
2023-06-04T09:11:30.294Z,131.67
2023-06-04T09:12:31.425Z,126.97
2023-06-04T09:13:30.280Z,127.58
2023-06-04T09:14:30.303Z,132.38
2023-06-04T09:15:30.313Z,135.20
2023-06-04T09:16:30.323Z,138.88
2023-06-04T09:17:30.296Z,144.16
2023-06-04T09:18:30.288Z,155.86
2023-06-04T09:19:30.281Z,153.76
2023-06-04T09:20:30.306Z,149.04
2023-06-04T09:21:30.277Z,156.85
2023-06-04T09:22:30.274Z,155.90
2023-06-04T09:23:30.346Z,162.35
2023-06-04T09:24:30.252Z,164.34
2023-06-04T09:25:30.272Z,168.94
2023-06-04T09:26:30.253Z,166.98
2023-06-04T09:27:30.232Z,167.35
2023-06-04T09:28:30.217Z,173.24
2023-06-04T09:29:30.214Z,171.29
2023-06-04T09:30:30.236Z,177.53
2023-06-04T09:31:30.247Z,177.67
2023-06-04T09:32:30.257Z,179.46
2023-06-04T09:33:30.186Z,174.76
2023-06-04T09:34:30.218Z,175.30
2023-06-04T09:35:30.144Z,180.43
2023-06-04T09:36:30.133Z,173.85
2023-06-04T09:37:30.142Z,174.19
2023-06-04T09:38:30.103Z,175.43
2023-06-04T09:39:30.094Z,171.19
2023-06-04T09:40:30.084Z,156.87
2023-06-04T09:41:30.107Z,157.06
2023-06-04T09:42:30.064Z,160.06
2023-06-04T09:43:30.075Z,154.67
2023-06-04T09:44:30.069Z,150.71
2023-06-04T09:45:30.044Z,159.09
2023-06-04T09:46:30.099Z,165.78
2023-06-04T09:47:30.119Z,174.50
2023-06-04T09:48:30.025Z,178.68
2023-06-04T09:49:30.018Z,181.05
2023-06-04T09:50:29.972Z,180.48
2023-06-04T09:51:30.015Z,183.49
2023-06-04T09:52:29.979Z,185.58
2023-06-04T09:53:32.316Z,185.78
2023-06-04T09:54:30.037Z,185.63
2023-06-04T09:55:30.004Z,185.20
2023-06-04T09:56:29.973Z,185.33
2023-06-04T09:57:29.972Z,186.22
2023-06-04T09:58:29.928Z,178.93
2023-06-04T09:59:29.944Z,184.91
2023-06-04T10:00:29.942Z,183.18
2023-06-04T10:01:29.954Z,176.65
2023-06-04T10:02:29.969Z,157.12
2023-06-04T10:03:29.935Z,153.02
2023-06-04T10:04:29.893Z,164.74
2023-06-04T10:05:29.843Z,163.78
2023-06-04T10:06:29.869Z,167.95
2023-06-04T10:07:29.844Z,170.06
2023-06-04T10:08:29.839Z,167.15
2023-06-04T10:09:30.797Z,166.84
2023-06-04T10:10:29.833Z,165.62
2023-06-04T10:11:29.805Z,162.34
2023-06-04T10:12:29.799Z,167.05
2023-06-04T10:13:29.793Z,169.22
2023-06-04T10:14:29.789Z,169.25
2023-06-04T10:15:29.730Z,165.92
2023-06-04T10:16:34.514Z,169.47
2023-06-04T10:17:30.728Z,169.66
2023-06-04T10:18:29.664Z,169.82
2023-06-04T10:19:29.608Z,169.58
2023-06-04T10:20:29.570Z,173.09
2023-06-04T10:21:29.550Z,175.58
2023-06-04T10:22:29.546Z,174.40
2023-06-04T10:23:29.487Z,170.15
2023-06-04T10:24:29.423Z,172.00
2023-06-04T10:25:29.371Z,172.63
2023-06-04T10:26:29.326Z,175.01
2023-06-04T10:27:29.284Z,171.51
2023-06-04T10:28:29.289Z,175.42
2023-06-04T10:29:29.188Z,178.17
2023-06-04T10:30:29.170Z,177.42
2023-06-04T10:31:29.130Z,178.14
2023-06-04T10:32:29.113Z,176.13
2023-06-04T10:33:29.025Z,176.05
2023-06-04T10:34:29.013Z,172.81
2023-06-04T10:35:28.955Z,173.05
2023-06-04T10:36:29.828Z,168.83
2023-06-04T10:37:28.879Z,171.51
2023-06-04T10:38:28.842Z,171.21
2023-06-04T10:39:28.760Z,171.47
2023-06-04T10:40:28.702Z,176.56
2023-06-04T10:41:28.681Z,174.60
2023-06-04T10:42:28.639Z,172.58
2023-06-04T10:43:28.600Z,175.88
2023-06-04T10:44:28.540Z,177.78
2023-06-04T10:45:28.533Z,181.01
2023-06-04T10:46:28.544Z,178.22
2023-06-04T10:47:28.508Z,179.26
2023-06-04T10:48:28.484Z,180.91
2023-06-04T10:49:28.412Z,181.50
2023-06-04T10:50:28.394Z,178.76
2023-06-04T10:51:28.346Z,179.76
2023-06-04T10:52:28.324Z,179.84
2023-06-04T10:53:28.413Z,182.10
2023-06-04T10:54:28.265Z,182.37
2023-06-04T10:55:28.251Z,179.69
2023-06-04T10:56:28.229Z,182.45
2023-06-04T10:57:28.204Z,185.59
2023-06-04T10:58:28.185Z,185.79
2023-06-04T10:59:28.148Z,185.57
2023-06-04T11:00:28.129Z,185.51
2023-06-04T11:01:28.107Z,184.27
2023-06-04T11:02:28.070Z,185.71
2023-06-04T11:03:28.034Z,185.09
2023-06-04T11:04:28.003Z,186.75
2023-06-04T11:05:27.988Z,183.47
2023-06-04T11:06:27.967Z,184.67
2023-06-04T11:07:27.949Z,185.09
2023-06-04T11:08:27.895Z,183.22
2023-06-04T11:09:27.887Z,178.51
2023-06-04T11:10:27.861Z,178.15
2023-06-04T11:11:27.797Z,176.91
2023-06-04T11:12:27.844Z,173.17
2023-06-04T11:13:27.782Z,172.62
2023-06-04T11:14:27.747Z,176.82
2023-06-04T11:15:27.726Z,181.74
2023-06-04T11:16:27.797Z,181.05
2023-06-04T11:17:27.789Z,181.53
2023-06-04T11:18:27.650Z,183.03
2023-06-04T11:19:27.631Z,183.42
2023-06-04T11:20:27.580Z,186.77
2023-06-04T11:21:28.061Z,189.44
2023-06-04T11:22:27.545Z,185.53
2023-06-04T11:23:27.585Z,180.50
2023-06-04T11:24:27.466Z,183.05
2023-06-04T11:25:27.534Z,168.40
2023-06-04T11:26:27.447Z,172.74
2023-06-04T11:27:36.234Z,177.01
2023-06-04T11:28:28.378Z,177.25
2023-06-04T11:29:27.305Z,178.05
2023-06-04T11:30:27.255Z,178.01
2023-06-04T11:31:27.264Z,171.53
2023-06-04T11:32:27.222Z,170.53
2023-06-04T11:33:27.175Z,175.19
2023-06-04T11:34:27.094Z,178.00
2023-06-04T11:35:27.054Z,178.09
2023-06-04T11:36:27.000Z,183.04
2023-06-04T11:37:26.927Z,178.44
2023-06-04T11:38:26.888Z,176.68
2023-06-04T11:39:26.862Z,169.29
2023-06-04T11:40:26.780Z,171.04
2023-06-04T11:41:26.770Z,161.24
2023-06-04T11:42:26.699Z,152.34
2023-06-04T11:43:26.673Z,155.27
2023-06-04T11:44:26.654Z,158.37
2023-06-04T11:45:26.602Z,161.32
2023-06-04T11:46:26.542Z,152.95
2023-06-04T11:47:26.515Z,150.27
2023-06-04T11:48:26.552Z,142.37
2023-06-04T11:49:26.400Z,136.38
2023-06-04T11:50:26.377Z,128.88
2023-06-04T11:51:26.313Z,131.16
2023-06-04T11:52:26.261Z,137.48
2023-06-04T11:53:26.214Z,131.25
2023-06-04T11:54:26.232Z,126.29
2023-06-04T11:55:26.190Z,118.24
2023-06-04T11:56:26.187Z,105.15
2023-06-04T11:57:26.139Z,101.79
2023-06-04T11:58:26.105Z,105.19
2023-06-04T11:59:26.092Z,104.64
2023-06-04T12:00:26.049Z,98.93
2023-06-04T12:01:26.046Z,106.88
2023-06-04T12:02:26.128Z,115.15
2023-06-04T12:03:26.050Z,115.24
2023-06-04T12:04:25.993Z,121.03
2023-06-04T12:05:25.996Z,121.71
2023-06-04T12:06:25.979Z,134.18
2023-06-04T12:07:25.916Z,139.05
2023-06-04T12:08:25.891Z,138.79
2023-06-04T12:09:25.882Z,140.03
2023-06-04T12:10:25.837Z,144.10
2023-06-04T12:11:25.809Z,143.01
2023-06-04T12:12:25.808Z,145.37
2023-06-04T12:13:25.760Z,148.37
2023-06-04T12:14:27.270Z,148.78
2023-06-04T12:15:25.751Z,150.37
2023-06-04T12:16:25.748Z,150.82
2023-06-04T12:17:25.751Z,152.45
2023-06-04T12:18:25.650Z,153.22
2023-06-04T12:19:25.627Z,152.56
2023-06-04T12:20:25.596Z,155.26
2023-06-04T12:21:25.566Z,154.47
2023-06-04T12:22:25.535Z,150.51
2023-06-04T12:23:25.529Z,147.87
2023-06-04T12:24:25.499Z,154.74
2023-06-04T12:25:25.460Z,157.49
2023-06-04T12:26:25.436Z,159.44
2023-06-04T12:27:25.390Z,161.74
2023-06-04T12:28:25.385Z,158.93